createdAt,value
2023-05-23T00:01:43.643Z,100291.13
2023-05-23T00:04:17.001Z,100281.41
2023-05-23T00:06:50.535Z,100284.81
2023-05-23T00:09:17.864Z,100282.97
2023-05-23T00:11:45.982Z,100283.94
2023-05-23T00:14:17.006Z,100282.09
2023-05-23T00:16:46.495Z,100277.81
2023-05-23T00:19:17.021Z,100278.69
2023-05-23T00:21:48.718Z,100268.81
2023-05-23T00:24:19.010Z,100278.56
2023-05-23T00:26:46.835Z,100272.31
2023-05-23T00:29:16.665Z,100272.38
2023-05-23T00:31:47.900Z,100273.03
2023-05-23T00:34:17.931Z,100268.50
2023-05-23T00:36:48.026Z,100268.31
2023-05-23T00:39:20.372Z,100269.19
2023-05-23T00:41:52.338Z,100259.56
2023-05-23T00:44:20.760Z,100262.16
2023-05-23T00:46:55.476Z,100264.75
2023-05-23T00:49:23.007Z,100260.31
2023-05-23T00:51:52.154Z,100264.72
2023-05-23T00:54:31.495Z,100264.72
2023-05-23T00:56:59.337Z,100264.53
2023-05-23T00:59:27.120Z,100276.19
2023-05-23T01:01:57.439Z,100272.59
2023-05-23T01:04:28.526Z,100268.97
2023-05-23T01:06:56.310Z,100255.63
2023-05-23T01:09:25.912Z,100275.03
2023-05-23T01:12:11.490Z,100265.25
2023-05-23T01:15:04.545Z,100268.69
2023-05-23T01:18:21.603Z,100274.81
2023-05-23T01:20:59.748Z,100279.19
2023-05-23T01:24:16.779Z,100274.41
2023-05-23T01:27:05.905Z,100281.81
2023-05-23T01:29:38.044Z,100274.63
2023-05-23T01:32:11.593Z,100272.53
2023-05-23T01:34:39.903Z,100275.13
2023-05-23T01:37:11.864Z,100270.66
2023-05-23T01:39:39.221Z,100273.94
2023-05-23T01:42:07.344Z,100267.13
2023-05-23T01:44:36.022Z,100259.97
2023-05-23T01:47:09.830Z,100267.13
2023-05-23T01:49:38.371Z,100266.22
2023-05-23T01:52:12.134Z,100262.97
2023-05-23T01:54:43.465Z,100262.13
2023-05-23T01:57:12.039Z,100257.59
2023-05-23T01:59:39.187Z,100253.13
2023-05-23T02:02:06.712Z,100252.38
2023-05-23T02:04:34.182Z,100255.97
2023-05-23T02:07:01.324Z,100252.38
2023-05-23T02:09:28.378Z,100250.38
2023-05-23T02:11:55.641Z,100242.97
2023-05-23T02:14:24.027Z,100242.94
2023-05-23T02:16:53.897Z,100239.00
2023-05-23T02:19:21.204Z,100240.03
2023-05-23T02:21:48.281Z,100242.44
2023-05-23T02:24:15.385Z,100240.19
2023-05-23T02:26:42.445Z,100241.41
2023-05-23T02:29:09.503Z,100240.66
2023-05-23T02:31:37.065Z,100232.25
2023-05-23T02:34:04.175Z,100235.91
2023-05-23T02:36:33.575Z,100232.88
2023-05-23T02:39:00.732Z,100232.25
2023-05-23T02:41:27.734Z,100229.22
2023-05-23T02:43:55.797Z,100234.66
2023-05-23T02:46:23.006Z,100227.44
2023-05-23T02:48:50.442Z,100232.75
2023-05-23T02:51:17.465Z,100224.72
2023-05-23T02:53:44.505Z,100231.97
2023-05-23T02:56:13.530Z,100219.66
2023-05-23T02:58:40.690Z,100225.00
2023-05-23T03:01:08.526Z,100223.25
2023-05-23T03:03:35.956Z,100222.66
2023-05-23T03:06:05.153Z,100225.56
2023-05-23T03:08:32.374Z,100226.34
2023-05-23T03:10:59.592Z,100221.16
2023-05-23T03:13:26.970Z,100227.66
2023-05-23T03:15:54.068Z,100222.63
2023-05-23T03:18:21.286Z,100217.69
2023-05-23T03:20:48.434Z,100213.59
2023-05-23T03:23:15.547Z,100216.56
2023-05-23T03:25:43.950Z,100218.78
2023-05-23T03:28:12.372Z,100225.25
2023-05-23T03:30:39.571Z,100214.34
2023-05-23T03:33:07.550Z,100215.16
2023-05-23T03:35:34.801Z,100213.59
2023-05-23T03:38:01.964Z,100213.84
2023-05-23T03:40:29.171Z,100217.16
2023-05-23T03:43:22.575Z,100221.31
2023-05-23T03:45:49.796Z,100223.41
2023-05-23T03:48:16.924Z,100216.66
2023-05-23T03:50:44.054Z,100211.38
2023-05-23T03:53:11.131Z,100206.91
2023-05-23T03:55:39.989Z,100217.03
2023-05-23T03:58:07.359Z,100208.34
2023-05-23T04:00:34.560Z,100208.34
2023-05-23T04:03:01.741Z,100206.16
2023-05-23T04:05:28.887Z,100197.66
2023-05-23T04:07:55.995Z,100200.91
2023-05-23T04:10:23.267Z,100191.47
2023-05-23T04:12:51.728Z,100197.47
2023-05-23T04:15:21.555Z,100188.69
2023-05-23T04:17:48.810Z,100195.84
2023-05-23T04:20:16.102Z,100199.06
2023-05-23T04:22:43.363Z,100195.31
2023-05-23T04:25:10.437Z,100193.00
2023-05-23T04:27:40.547Z,100189.00
2023-05-23T04:30:10.065Z,100187.75
2023-05-23T04:32:38.317Z,100189.16
2023-05-23T04:35:05.997Z,100192.75
2023-05-23T04:37:33.186Z,100188.47
2023-05-23T04:40:00.839Z,100185.44
2023-05-23T04:42:29.441Z,100177.34
2023-05-23T04:44:59.584Z,100186.66
2023-05-23T04:47:28.691Z,100183.28
2023-05-23T04:49:57.485Z,100176.47
2023-05-23T04:52:25.562Z,100174.50
2023-05-23T04:54:54.268Z,100182.44
2023-05-23T04:57:22.195Z,100173.19
2023-05-23T04:59:49.268Z,100183.31
2023-05-23T05:02:16.315Z,100173.16
2023-05-23T05:04:43.341Z,100178.09
2023-05-23T05:07:10.596Z,100171.28
2023-05-23T05:09:37.664Z,100164.44
2023-05-23T05:12:04.898Z,100165.44
2023-05-23T05:14:31.998Z,100157.03
2023-05-23T05:16:59.374Z,100154.91
2023-05-23T05:19:26.705Z,100157.91
2023-05-23T05:21:53.818Z,100153.53
2023-05-23T05:24:22.595Z,100158.38
2023-05-23T05:26:49.889Z,100152.91
2023-05-23T05:29:17.007Z,100160.91
2023-05-23T05:31:45.306Z,100160.66
2023-05-23T05:34:13.221Z,100153.72
2023-05-23T05:36:46.007Z,100155.09
2023-05-23T05:39:17.031Z,100154.38
2023-05-23T05:41:44.039Z,100154.25
2023-05-23T05:44:11.128Z,100147.84
2023-05-23T05:46:38.207Z,100163.59
2023-05-23T05:49:05.272Z,100156.09
2023-05-23T05:51:32.390Z,100156.94
2023-05-23T05:53:59.491Z,100160.22
2023-05-23T05:56:27.965Z,100158.97
2023-05-23T05:58:55.099Z,100151.13
2023-05-23T06:01:22.165Z,100153.59
2023-05-23T06:03:49.380Z,100154.13
2023-05-23T06:06:16.952Z,100150.50
2023-05-23T06:08:44.634Z,100152.53
2023-05-23T06:11:12.285Z,100138.97
2023-05-23T06:13:39.447Z,100140.78
2023-05-23T06:16:07.122Z,100140.22
2023-05-23T06:18:34.169Z,100144.78
2023-05-23T06:21:01.406Z,100135.44
2023-05-23T06:23:28.429Z,100142.03
2023-05-23T06:25:55.614Z,100132.13
2023-05-23T06:28:22.663Z,100127.59
2023-05-23T06:30:49.809Z,100132.56
2023-05-23T06:33:17.204Z,100133.78
2023-05-23T06:35:44.282Z,100130.66
2023-05-23T06:38:11.500Z,100128.75
2023-05-23T06:40:38.595Z,100123.38
2023-05-23T06:43:05.777Z,100123.94
2023-05-23T06:45:35.179Z,100122.66
2023-05-23T06:48:02.401Z,100116.09
2023-05-23T06:50:29.835Z,100124.81
2023-05-23T06:52:56.862Z,100117.53
2023-05-23T06:55:24.481Z,100112.34
2023-05-23T06:57:52.315Z,100106.31
2023-05-23T07:00:20.216Z,100110.59
2023-05-23T07:02:48.913Z,100115.78
2023-05-23T07:05:16.463Z,100100.91
2023-05-23T07:07:44.076Z,100102.34
2023-05-23T07:10:11.527Z,100100.84
2023-05-23T07:12:38.664Z,100092.66
2023-05-23T07:15:06.483Z,100093.91
2023-05-23T07:17:33.614Z,100096.28
2023-05-23T07:20:01.386Z,100084.91
2023-05-23T07:22:28.385Z,100088.41
2023-05-23T07:24:55.512Z,100085.09
2023-05-23T07:27:22.694Z,100097.66
2023-05-23T07:29:50.907Z,100079.91
2023-05-23T07:32:17.936Z,100086.91
2023-05-23T07:34:44.977Z,100077.19
2023-05-23T07:37:12.076Z,100075.84
2023-05-23T07:39:39.099Z,100068.88
2023-05-23T07:42:06.133Z,100076.66
2023-05-23T07:44:33.163Z,100067.13
2023-05-23T07:47:00.355Z,100065.88
2023-05-23T07:49:27.452Z,100058.66
2023-05-23T07:51:54.474Z,100044.16
2023-05-23T07:54:21.557Z,100065.91
2023-05-23T07:56:48.589Z,100058.50
2023-05-23T07:59:15.755Z,100061.75
2023-05-23T08:01:42.987Z,100049.16
2023-05-23T08:04:10.068Z,100049.88
2023-05-23T08:06:38.677Z,100058.44
2023-05-23T08:09:09.936Z,100069.72
2023-05-23T08:11:37.026Z,100054.97
2023-05-23T08:14:04.118Z,100067.06
2023-05-23T08:16:31.194Z,100056.38
2023-05-23T08:18:58.301Z,100049.25
2023-05-23T08:21:25.416Z,100053.88
2023-05-23T08:23:52.463Z,100056.84
2023-05-23T08:26:19.618Z,100055.09
2023-05-23T08:28:46.944Z,100046.09
2023-05-23T08:31:14.032Z,100042.06
2023-05-23T08:33:41.086Z,100041.44
2023-05-23T08:36:08.226Z,100037.25
2023-05-23T08:38:35.270Z,100031.97
2023-05-23T08:41:02.732Z,100033.41
2023-05-23T08:43:29.983Z,100029.22
2023-05-23T08:45:57.401Z,100029.09
2023-05-23T08:48:27.102Z,100024.63
2023-05-23T08:50:54.393Z,100024.81
2023-05-23T08:53:23.611Z,100017.91
2023-05-23T08:55:55.870Z,100033.44
2023-05-23T08:58:24.876Z,100030.81
2023-05-23T09:00:54.041Z,100010.75
2023-05-23T09:03:22.241Z,100023.44
2023-05-23T09:05:50.711Z,100024.34
2023-05-23T09:08:19.268Z,100009.00
2023-05-23T09:10:50.075Z,100012.50
2023-05-23T09:13:17.896Z,100030.25
2023-05-23T09:16:00.397Z,100013.09
2023-05-23T09:18:28.341Z,100011.78
2023-05-23T09:20:55.428Z,100011.91
2023-05-23T09:23:22.487Z,100004.28
2023-05-23T09:25:49.541Z,100018.13
2023-05-23T09:28:16.607Z,100021.78
2023-05-23T09:30:43.685Z,100011.28
2023-05-23T09:33:14.168Z,100009.94
2023-05-23T09:35:46.319Z,100030.44
2023-05-23T09:38:13.762Z,100017.38
2023-05-23T09:40:45.822Z,100012.84
2023-05-23T09:43:12.857Z,100012.78
2023-05-23T09:45:39.862Z,100022.34
2023-05-23T09:48:14.188Z,100023.59
2023-05-23T09:50:41.854Z,100007.03
2023-05-23T09:53:09.170Z,100008.25
2023-05-23T09:55:36.976Z,100010.81
2023-05-23T09:58:04.994Z,100008.94
2023-05-23T10:00:33.212Z,99996.22
2023-05-23T10:03:13.168Z,100019.13
2023-05-23T10:05:53.389Z,100012.16
2023-05-23T10:08:36.570Z,100008.78
2023-05-23T10:11:15.532Z,100013.63
2023-05-23T10:13:49.221Z,100019.25
2023-05-23T10:16:40.325Z,99987.13
2023-05-23T10:19:20.741Z,99992.16
2023-05-23T10:21:56.782Z,100001.03
2023-05-23T10:24:25.924Z,100010.88
2023-05-23T10:26:55.285Z,99989.72
2023-05-23T10:29:23.350Z,100001.56
2023-05-23T10:31:52.366Z,99999.16
2023-05-23T10:34:31.804Z,99983.47
2023-05-23T10:37:07.281Z,100013.38
2023-05-23T10:39:46.092Z,99994.31
2023-05-23T10:42:49.830Z,99981.97
2023-05-23T10:45:22.500Z,99997.38
2023-05-23T10:47:53.726Z,99982.66
2023-05-23T10:50:37.172Z,99983.72
2023-05-23T10:53:06.196Z,99996.25
2023-05-23T10:55:36.684Z,99988.91
2023-05-23T10:58:19.819Z,99985.34
2023-05-23T11:01:01.592Z,99981.16
2023-05-23T11:04:18.444Z,99978.38
2023-05-23T11:06:45.066Z,99975.88
2023-05-23T11:09:21.908Z,99975.81
2023-05-23T11:11:57.467Z,99971.16
2023-05-23T11:14:33.510Z,99974.31
2023-05-23T11:17:15.137Z,99966.59
2023-05-23T11:20:07.313Z,99969.75
2023-05-23T11:22:36.081Z,99963.31
2023-05-23T11:25:10.191Z,99962.22
2023-05-23T11:27:40.704Z,99951.09
2023-05-23T11:30:14.282Z,99960.09
2023-05-23T11:32:42.871Z,99947.78
2023-05-23T11:35:11.864Z,99957.25
2023-05-23T11:37:39.979Z,99954.09
2023-05-23T11:40:36.468Z,99951.09
2023-05-23T11:43:15.172Z,99959.06
2023-05-23T11:45:42.865Z,99957.81
2023-05-23T11:48:12.028Z,99955.50
2023-05-23T11:51:05.380Z,99939.03
2023-05-23T11:53:33.024Z,99942.81
2023-05-23T11:56:03.283Z,99932.75
2023-05-23T11:58:36.414Z,99949.56
2023-05-23T12:01:09.479Z,99932.41
2023-05-23T12:03:47.682Z,99931.19
2023-05-23T12:06:23.636Z,99940.78
2023-05-23T12:08:52.824Z,99937.06
2023-05-23T12:11:20.032Z,99939.81
2023-05-23T12:13:47.212Z,99933.16
2023-05-23T12:16:15.918Z,99923.72
2023-05-23T12:18:43.560Z,99917.88
2023-05-23T12:21:11.340Z,99919.25
2023-05-23T12:23:40.587Z,99924.97
2023-05-23T12:26:09.970Z,99924.31
2023-05-23T12:28:38.891Z,99919.78
2023-05-23T12:31:10.692Z,99918.41
2023-05-23T12:33:45.367Z,99918.06
2023-05-23T12:36:12.993Z,99927.59
2023-05-23T12:38:45.436Z,99920.03
2023-05-23T12:41:22.345Z,99913.50
2023-05-23T12:43:54.866Z,99912.38
2023-05-23T12:46:26.623Z,99921.22
2023-05-23T12:48:54.478Z,99913.22
2023-05-23T12:51:22.248Z,99908.75
2023-05-23T12:53:49.425Z,99907.25
2023-05-23T12:56:16.577Z,99900.50
2023-05-23T12:58:44.005Z,99893.28
2023-05-23T13:01:11.376Z,99894.28
2023-05-23T13:03:38.628Z,99895.41
2023-05-23T13:06:06.857Z,99895.66
2023-05-23T13:08:33.896Z,99897.50
2023-05-23T13:11:01.058Z,99889.44
2023-05-23T13:13:28.315Z,99891.78
2023-05-23T13:15:56.408Z,99892.28
2023-05-23T13:18:23.720Z,99881.78
2023-05-23T13:20:51.203Z,99888.28
2023-05-23T13:23:18.270Z,99888.63
2023-05-23T13:25:45.390Z,99882.50
2023-05-23T13:28:12.456Z,99881.78
2023-05-23T13:30:39.687Z,99887.78
2023-05-23T13:33:07.043Z,99881.72
2023-05-23T13:35:34.151Z,99886.91
2023-05-23T13:38:01.323Z,99881.09
2023-05-23T13:40:28.362Z,99888.19
2023-05-23T13:42:55.946Z,99882.31
2023-05-23T13:45:23.390Z,99883.44
2023-05-23T13:47:50.737Z,99885.91
2023-05-23T13:50:18.031Z,99888.34
2023-05-23T13:52:49.116Z,99886.34
2023-05-23T13:55:17.484Z,99861.59
2023-05-23T13:57:44.767Z,99873.06
2023-05-23T14:00:12.669Z,99871.22
2023-05-23T14:02:39.919Z,99874.69
2023-05-23T14:05:08.254Z,99877.22
2023-05-23T14:07:36.510Z,99870.00
2023-05-23T14:10:05.190Z,99890.75
2023-05-23T14:12:32.223Z,99877.56
2023-05-23T14:14:59.245Z,99872.00
2023-05-23T14:17:26.794Z,99870.56
2023-05-23T14:19:53.916Z,99866.16
2023-05-23T14:22:20.916Z,99861.91
2023-05-23T14:24:48.010Z,99856.03
2023-05-23T14:27:15.022Z,99868.69
2023-05-23T14:29:46.390Z,99866.09
2023-05-23T14:32:13.998Z,99857.47
2023-05-23T14:34:41.645Z,99853.25
2023-05-23T14:37:08.718Z,99852.22
2023-05-23T14:39:36.140Z,99864.81
2023-05-23T14:42:03.832Z,99858.09
2023-05-23T14:44:31.060Z,99854.31
2023-05-23T14:46:58.263Z,99854.19
2023-05-23T14:49:25.316Z,99852.34
2023-05-23T14:51:52.420Z,99858.75
2023-05-23T14:54:19.919Z,99850.38
2023-05-23T14:56:47.067Z,99845.75
2023-05-23T14:59:14.302Z,99850.53
2023-05-23T15:01:41.807Z,99853.72
2023-05-23T15:04:10.019Z,99855.44
2023-05-23T15:06:39.241Z,99850.81
2023-05-23T15:09:07.659Z,99840.84
2023-05-23T15:11:38.913Z,99841.63
2023-05-23T15:14:06.365Z,99836.97
2023-05-23T15:16:35.240Z,99838.66
2023-05-23T15:19:02.637Z,99838.47
2023-05-23T15:21:29.846Z,99828.00
2023-05-23T15:23:57.796Z,99832.28
2023-05-23T15:26:25.366Z,99837.63
2023-05-23T15:28:52.400Z,99829.91
2023-05-23T15:31:19.542Z,99829.88
2023-05-23T15:33:47.910Z,99834.41
2023-05-23T15:36:15.214Z,99828.44
2023-05-23T15:38:43.779Z,99832.09
2023-05-23T15:41:11.519Z,99832.91
2023-05-23T15:43:38.637Z,99833.66
2023-05-23T15:46:05.773Z,99825.09
2023-05-23T15:48:32.946Z,99836.53
2023-05-23T15:51:00.084Z,99822.44
2023-05-23T15:53:27.156Z,99821.31
2023-05-23T15:55:54.198Z,99816.41
2023-05-23T15:58:21.223Z,99820.13
2023-05-23T16:00:48.234Z,99814.22
2023-05-23T16:03:15.322Z,99820.13
2023-05-23T16:05:42.531Z,99816.16
2023-05-23T16:08:09.954Z,99821.50
2023-05-23T16:10:37.026Z,99812.25
2023-05-23T16:13:04.152Z,99809.63
2023-05-23T16:15:31.250Z,99815.31
2023-05-23T16:17:58.762Z,99813.69
2023-05-23T16:20:26.030Z,99809.56
2023-05-23T16:22:53.129Z,99801.25
2023-05-23T16:25:20.181Z,99812.69
2023-05-23T16:27:47.219Z,99804.88
2023-05-23T16:30:14.385Z,99807.78
2023-05-23T16:32:41.515Z,99813.72
2023-05-23T16:35:10.279Z,99807.84
2023-05-23T16:37:38.596Z,99801.66
2023-05-23T16:40:14.058Z,99805.75
2023-05-23T16:42:41.299Z,99809.47
2023-05-23T16:45:08.693Z,99805.28
2023-05-23T16:47:36.340Z,99807.91
2023-05-23T16:50:04.979Z,99812.41
2023-05-23T16:52:32.156Z,99813.13
2023-05-23T16:54:59.192Z,99817.00
2023-05-23T16:57:26.271Z,99815.13
2023-05-23T16:59:53.300Z,99812.63
2023-05-23T17:02:20.847Z,99818.66
2023-05-23T17:04:48.241Z,99819.22
2023-05-23T17:07:15.890Z,99825.41
2023-05-23T17:09:43.281Z,99820.38
2023-05-23T17:12:10.404Z,99823.72
2023-05-23T17:14:37.539Z,99816.25
2023-05-23T17:17:05.450Z,99826.63
2023-05-23T17:19:32.630Z,99818.53
2023-05-23T17:21:59.780Z,99821.63
2023-05-23T17:24:28.034Z,99823.06
2023-05-23T17:26:55.072Z,99821.06
2023-05-23T17:29:22.169Z,99824.44
2023-05-23T17:31:49.275Z,99829.19
2023-05-23T17:34:16.985Z,99829.72
2023-05-23T17:36:43.979Z,99833.81
2023-05-23T17:39:11.006Z,99834.69
2023-05-23T17:41:38.061Z,99831.75
2023-05-23T17:44:05.108Z,99833.63
2023-05-23T17:46:32.211Z,99833.56
2023-05-23T17:48:59.277Z,99840.88
2023-05-23T17:51:26.423Z,99836.47
2023-05-23T17:53:53.930Z,99838.56
2023-05-23T17:56:24.823Z,99833.50
2023-05-23T17:58:52.805Z,99838.78
2023-05-23T18:12:19.952Z,99833.94
2023-05-23T18:14:48.050Z,99832.84
2023-05-23T18:17:15.215Z,99829.16
2023-05-23T18:19:42.415Z,99824.06
2023-05-23T18:22:09.663Z,99827.75
2023-05-23T18:24:36.875Z,99832.44
2023-05-23T18:27:04.769Z,99832.09
2023-05-23T18:29:31.878Z,99838.97
2023-05-23T18:31:58.944Z,99842.69
2023-05-23T18:34:28.480Z,99840.81
2023-05-23T18:36:56.417Z,99837.53
2023-05-23T18:39:23.871Z,99852.88
2023-05-23T18:41:50.928Z,99852.97
2023-05-23T18:44:20.654Z,99863.56
2023-05-23T18:46:48.309Z,99859.69
2023-05-23T18:49:15.810Z,99863.63
2023-05-23T18:51:43.309Z,99869.22
2023-05-23T18:54:10.383Z,99868.25
2023-05-23T18:56:37.448Z,99866.31
2023-05-23T18:59:04.537Z,99872.59
2023-05-23T19:01:31.602Z,99877.13
2023-05-23T19:03:58.744Z,99876.16
2023-05-23T19:06:26.836Z,99873.59
2023-05-23T19:08:53.893Z,99870.53
2023-05-23T19:11:21.826Z,99871.19
2023-05-23T19:13:48.879Z,99873.91
2023-05-23T19:16:17.424Z,99872.34
2023-05-23T19:18:45.182Z,99881.69
2023-05-23T19:21:12.882Z,99881.53
2023-05-23T19:23:40.090Z,99878.78
2023-05-23T19:26:07.727Z,99880.09
2023-05-23T19:28:35.243Z,99883.78
2023-05-23T19:31:02.282Z,99881.81
2023-05-23T19:33:29.338Z,99877.81
2023-05-23T19:35:56.343Z,99885.81
2023-05-23T19:38:23.424Z,99891.72
2023-05-23T19:40:50.506Z,99890.38
2023-05-23T19:43:17.710Z,99882.81
2023-05-23T19:45:44.865Z,99879.19
2023-05-23T19:48:12.297Z,99888.81
2023-05-23T19:50:41.043Z,99883.63
2023-05-23T19:53:08.232Z,99899.78
2023-05-23T19:55:35.465Z,99898.03
2023-05-23T19:58:02.652Z,99893.28
2023-05-23T20:00:29.762Z,99893.66
2023-05-23T20:02:56.954Z,99896.25
2023-05-23T20:05:24.301Z,99894.53
2023-05-23T20:07:53.139Z,99898.88
2023-05-23T20:10:20.247Z,99898.03
2023-05-23T20:12:48.080Z,99899.75
2023-05-23T20:15:17.656Z,99903.38
2023-05-23T20:17:48.989Z,99908.16
2023-05-23T20:20:16.096Z,99892.78
2023-05-23T20:22:43.187Z,99903.13
2023-05-23T20:25:10.453Z,99900.47
2023-05-23T20:27:37.523Z,99917.72
2023-05-23T20:30:05.145Z,99913.22
2023-05-23T20:32:32.266Z,99916.69
2023-05-23T20:34:59.286Z,99913.09
2023-05-23T20:37:28.335Z,99918.47
2023-05-23T20:39:55.412Z,99919.25
2023-05-23T20:42:22.641Z,99916.59
2023-05-23T20:44:49.653Z,99919.56
2023-05-23T20:47:17.723Z,99912.38
2023-05-23T20:49:44.904Z,99914.28
2023-05-23T20:52:11.947Z,99908.97
2023-05-23T20:54:39.043Z,99911.09
2023-05-23T20:57:06.198Z,99921.53
2023-05-23T20:59:33.250Z,99911.19
2023-05-23T21:02:00.407Z,99920.97
2023-05-23T21:04:27.540Z,99911.84
2023-05-23T21:06:54.560Z,99906.69
2023-05-23T21:09:21.859Z,99919.50
2023-05-23T21:11:48.939Z,99914.16
2023-05-23T21:14:16.026Z,99921.41
2023-05-23T21:16:43.128Z,99924.94
2023-05-23T21:19:10.201Z,99914.31
2023-05-23T21:21:37.668Z,99910.03
2023-05-23T21:24:06.424Z,99909.09
2023-05-23T21:26:33.631Z,99915.19
2023-05-23T21:29:00.882Z,99915.06
2023-05-23T21:31:40.390Z,99915.16
2023-05-23T21:34:22.354Z,99921.59
2023-05-23T21:36:51.499Z,99919.88
2023-05-23T21:39:18.567Z,99916.94
2023-05-23T21:41:45.693Z,99911.84
2023-05-23T21:44:17.843Z,99921.72
2023-05-23T21:46:45.568Z,99922.41
2023-05-23T21:49:12.929Z,99923.44
2023-05-23T21:51:39.979Z,99924.31
2023-05-23T21:54:07.058Z,99919.19
2023-05-23T21:56:34.103Z,99924.44
2023-05-23T21:59:01.186Z,99918.44
2023-05-23T22:01:28.237Z,99915.66
2023-05-23T22:03:55.414Z,99918.47
2023-05-23T22:06:22.528Z,99921.22
2023-05-23T22:08:49.595Z,99926.31
2023-05-23T22:11:16.828Z,99919.31
2023-05-23T22:13:44.092Z,99916.69
2023-05-23T22:16:11.256Z,99921.19
2023-05-23T22:18:51.430Z,99911.34
2023-05-23T22:21:18.823Z,99911.34
2023-05-23T22:23:46.091Z,99914.91
2023-05-23T22:26:14.062Z,99918.44
2023-05-23T22:28:41.194Z,99908.78
2023-05-23T22:31:09.812Z,99919.53
2023-05-23T22:33:38.299Z,99914.28
2023-05-23T22:36:06.322Z,99910.75
2023-05-23T22:38:33.502Z,99924.94
2023-05-23T22:41:00.605Z,99910.78
2023-05-23T22:43:29.018Z,99926.00
2023-05-23T22:45:57.092Z,99930.44
2023-05-23T22:48:28.060Z,99922.34
2023-05-23T22:50:55.147Z,99918.78
2023-05-23T22:53:25.106Z,99918.84
2023-05-23T22:55:52.307Z,99928.53
2023-05-23T22:58:19.371Z,99921.59
2023-05-23T23:00:46.492Z,99921.63
2023-05-23T23:03:15.605Z,99914.41
2023-05-23T23:05:42.867Z,99917.13
2023-05-23T23:08:09.988Z,99917.13
2023-05-23T23:10:37.081Z,99915.34
2023-05-23T23:13:04.187Z,99912.75
2023-05-23T23:15:33.887Z,99906.56
2023-05-23T23:18:01.371Z,99908.53
2023-05-23T23:20:29.410Z,99911.88
2023-05-23T23:22:57.607Z,99901.28
2023-05-23T23:25:24.795Z,99899.59
2023-05-23T23:27:51.916Z,99900.53
2023-05-23T23:30:18.983Z,99904.94
2023-05-23T23:32:46.045Z,99896.06
2023-05-23T23:35:13.139Z,99900.44
2023-05-23T23:37:40.488Z,99890.72
2023-05-23T23:40:08.790Z,99889.88
2023-05-23T23:42:35.850Z,99890.75
2023-05-23T23:45:03.829Z,99891.66
2023-05-23T23:47:32.597Z,99897.81
2023-05-23T23:50:00.216Z,99897.91
2023-05-23T23:52:28.192Z,99900.53
2023-05-23T23:54:55.367Z,99903.06
2023-05-23T23:57:22.458Z,99895.19
2023-05-23T23:59:49.532Z,99889.03
